sensor_id;sensor_type;location;lat;lon;timestamp;pressure;altitude;pressure_sealevel;temperature;humidity
20455;BME280;10386;54.314;10.022;2023-02-15T00:01:37;102865.09;;;1.42;100.00
20455;BME280;10386;54.314;10.022;2023-02-15T00:04:05;102864.22;;;1.31;100.00
20455;BME280;10386;54.314;10.022;2023-02-15T00:06:33;102865.09;;;1.27;100.00
20455;BME280;10386;54.314;10.022;2023-02-15T00:09:00;102865.09;;;1.24;100.00
20455;BME280;10386;54.314;10.022;2023-02-15T00:11:27;102846.41;;;1.33;100.00
20455;BME280;10386;54.314;10.022;2023-02-15T00:14:12;102844.59;;;1.36;100.00
20455;BME280;10386;54.314;10.022;2023-02-15T00:16:40;102843.72;;;1.30;100.00
20455;BME280;10386;54.314;10.022;2023-02-15T00:19:08;102829.44;;;1.16;100.00
20455;BME280;10386;54.314;10.022;2023-02-15T00:21:36;102828.59;;;1.13;100.00
20455;BME280;10386;54.314;10.022;2023-02-15T00:24:05;102821.44;;;1.15;100.00
20455;BME280;10386;54.314;10.022;2023-02-15T00:26:32;102827.69;;;1.08;100.00
20455;BME280;10386;54.314;10.022;2023-02-15T00:29:00;102827.72;;;0.99;100.00
20455;BME280;10386;54.314;10.022;2023-02-15T00:31:28;102827.69;;;0.97;100.00
20455;BME280;10386;54.314;10.022;2023-02-15T00:34:14;102819.69;;;0.93;100.00
20455;BME280;10386;54.314;10.022;2023-02-15T00:36:42;102817.91;;;0.84;100.00
20455;BME280;10386;54.314;10.022;2023-02-15T00:39:09;102821.44;;;0.82;100.00
20455;BME280;10386;54.314;10.022;2023-02-15T00:41:36;102807.19;;;0.77;100.00
20455;BME280;10386;54.314;10.022;2023-02-15T00:44:03;102799.16;;;0.80;100.00
20455;BME280;10386;54.314;10.022;2023-02-15T00:46:31;102800.97;;;0.75;100.00
20455;BME280;10386;54.314;10.022;2023-02-15T00:48:58;102801.84;;;0.74;100.00
20455;BME280;10386;54.314;10.022;2023-02-15T00:51:25;102799.19;;;0.74;100.00
20455;BME280;10386;54.314;10.022;2023-02-15T00:53:53;102799.19;;;0.72;100.00
20455;BME280;10386;54.314;10.022;2023-02-15T00:56:20;102784.94;;;0.73;100.00
20455;BME280;10386;54.314;10.022;2023-02-15T00:58:47;102782.25;;;0.75;100.00
20455;BME280;10386;54.314;10.022;2023-02-15T01:01:16;102776.00;;;0.73;100.00
20455;BME280;10386;54.314;10.022;2023-02-15T01:03:44;102772.44;;;0.71;100.00
20455;BME280;10386;54.314;10.022;2023-02-15T01:06:14;102766.22;;;0.78;100.00
20455;BME280;10386;54.314;10.022;2023-02-15T01:08:41;102762.63;;;0.85;100.00
20455;BME280;10386;54.314;10.022;2023-02-15T01:11:20;102760.84;;;0.78;100.00
20455;BME280;10386;54.314;10.022;2023-02-15T01:13:57;102757.28;;;0.79;100.00
20455;BME280;10386;54.314;10.022;2023-02-15T01:16:26;102753.72;;;0.80;100.00
20455;BME280;10386;54.314;10.022;2023-02-15T01:18:53;102749.28;;;0.80;100.00
20455;BME280;10386;54.314;10.022;2023-02-15T01:21:22;102746.63;;;0.70;100.00
20455;BME280;10386;54.314;10.022;2023-02-15T01:23:50;102737.72;;;0.68;100.00
20455;BME280;10386;54.314;10.022;2023-02-15T01:26:16;102750.22;;;0.46;100.00
20455;BME280;10386;54.314;10.022;2023-02-15T01:28:44;102746.63;;;0.46;100.00
20455;BME280;10386;54.314;10.022;2023-02-15T01:31:13;102736.84;;;0.55;100.00
20455;BME280;10386;54.314;10.022;2023-02-15T01:33:40;102730.59;;;0.67;100.00
20455;BME280;10386;54.314;10.022;2023-02-15T01:36:07;102723.47;;;0.67;100.00
20455;BME280;10386;54.314;10.022;2023-02-15T01:38:35;102714.53;;;0.70;100.00
20455;BME280;10386;54.314;10.022;2023-02-15T01:41:02;102706.53;;;0.73;100.00
20455;BME280;10386;54.314;10.022;2023-02-15T01:43:55;102686.84;;;1.07;100.00
20455;BME280;10386;54.314;10.022;2023-02-15T01:46:28;102686.84;;;1.10;100.00
20455;BME280;10386;54.314;10.022;2023-02-15T01:49:07;102684.16;;;1.13;100.00
20455;BME280;10386;54.314;10.022;2023-02-15T01:51:39;102660.91;;;1.27;100.00
20455;BME280;10386;54.314;10.022;2023-02-15T01:54:17;102658.19;;;1.43;100.00
20455;BME280;10386;54.314;10.022;2023-02-15T01:56:46;102644.78;;;1.43;100.00
20455;BME280;10386;54.314;10.022;2023-02-15T01:59:18;102635.84;;;1.50;100.00
20455;BME280;10386;54.314;10.022;2023-02-15T02:01:46;102634.94;;;1.51;100.00
20455;BME280;10386;54.314;10.022;2023-02-15T02:04:25;102632.25;;;1.54;100.00
20455;BME280;10386;54.314;10.022;2023-02-15T02:06:57;102618.84;;;1.55;100.00
20455;BME280;10386;54.314;10.022;2023-02-15T02:09:25;102608.97;;;1.60;100.00
20455;BME280;10386;54.314;10.022;2023-02-15T02:11:52;102604.53;;;1.59;100.00
20455;BME280;10386;54.314;10.022;2023-02-15T02:14:21;102591.97;;;1.72;100.00
20455;BME280;10386;54.314;10.022;2023-02-15T02:23:06;102577.56;;;1.89;100.00
20455;BME280;10386;54.314;10.022;2023-02-15T02:36:24;102543.56;;;1.96;100.00
20455;BME280;10386;54.314;10.022;2023-02-15T02:39:22;102526.56;;;2.01;100.00
20455;BME280;10386;54.314;10.022;2023-02-15T02:42:11;102513.00;;;2.16;100.00
20455;BME280;10386;54.314;10.022;2023-02-15T02:47:23;102510.50;;;2.01;100.00
20455;BME280;10386;54.314;10.022;2023-02-15T02:49:59;102506.97;;;1.96;100.00
20455;BME280;10386;54.314;10.022;2023-02-15T02:55:18;102491.91;;;1.86;100.00
20455;BME280;10386;54.314;10.022;2023-02-15T02:57:54;102472.31;;;1.81;100.00
20455;BME280;10386;54.314;10.022;2023-02-15T03:00:25;102471.34;;;1.88;100.00
20455;BME280;10386;54.314;10.022;2023-02-15T03:03:14;102467.97;;;1.65;100.00
20455;BME280;10386;54.314;10.022;2023-02-15T03:05:47;102462.53;;;1.76;100.00
20455;BME280;10386;54.314;10.022;2023-02-15T03:08:16;102463.50;;;1.67;100.00
20455;BME280;10386;54.314;10.022;2023-02-15T03:10:52;102466.25;;;1.58;100.00
20455;BME280;10386;54.314;10.022;2023-02-15T03:13:20;102455.53;;;1.63;100.00
20455;BME280;10386;54.314;10.022;2023-02-15T03:15:48;102445.72;;;1.62;100.00
20455;BME280;10386;54.314;10.022;2023-02-15T03:18:43;102445.75;;;1.59;100.00
20455;BME280;10386;54.314;10.022;2023-02-15T03:21:21;102441.19;;;1.68;100.00
20455;BME280;10386;54.314;10.022;2023-02-15T03:26:53;102442.31;;;1.45;100.00
20455;BME280;10386;54.314;10.022;2023-02-15T03:29:24;102434.28;;;1.43;100.00
20455;BME280;10386;54.314;10.022;2023-02-15T03:31:56;102427.13;;;1.47;100.00
20455;BME280;10386;54.314;10.022;2023-02-15T03:34:25;102421.56;;;1.68;100.00
20455;BME280;10386;54.314;10.022;2023-02-15T03:37:00;102418.97;;;1.60;100.00
20455;BME280;10386;54.314;10.022;2023-02-15T03:39:37;102417.28;;;1.52;100.00
20455;BME280;10386;54.314;10.022;2023-02-15T03:42:19;102416.38;;;1.53;100.00
20455;BME280;10386;54.314;10.022;2023-02-15T03:44:50;102410.97;;;1.57;100.00
20455;BME280;10386;54.314;10.022;2023-02-15T03:47:22;102396.63;;;1.64;100.00
20455;BME280;10386;54.314;10.022;2023-02-15T03:50:08;102392.22;;;1.57;100.00
20455;BME280;10386;54.314;10.022;2023-02-15T03:52:58;102385.00;;;1.67;100.00
20455;BME280;10386;54.314;10.022;2023-02-15T03:55:27;102380.56;;;1.64;100.00
20455;BME280;10386;54.314;10.022;2023-02-15T03:57:55;102380.56;;;1.64;100.00
20455;BME280;10386;54.314;10.022;2023-02-15T04:00:44;102379.66;;;1.65;100.00
20455;BME280;10386;54.314;10.022;2023-02-15T04:03:44;102373.44;;;1.63;100.00
20455;BME280;10386;54.314;10.022;2023-02-15T04:06:12;102357.34;;;1.66;100.00
20455;BME280;10386;54.314;10.022;2023-02-15T04:08:38;102362.78;;;1.57;100.00
20455;BME280;10386;54.314;10.022;2023-02-15T04:11:24;102364.66;;;1.49;100.00
20455;BME280;10386;54.314;10.022;2023-02-15T04:13:50;102358.41;;;1.52;100.00
20455;BME280;10386;54.314;10.022;2023-02-15T04:16:23;102355.75;;;1.47;100.00
20455;BME280;10386;54.314;10.022;2023-02-15T04:18:50;102353.84;;;1.58;100.00
20455;BME280;10386;54.314;10.022;2023-02-15T04:21:35;102345.75;;;1.66;100.00
20455;BME280;10386;54.314;10.022;2023-02-15T04:24:21;102347.75;;;1.49;100.00
20455;BME280;10386;54.314;10.022;2023-02-15T04:27:06;102350.38;;;1.52;100.00
20455;BME280;10386;54.314;10.022;2023-02-15T04:29:32;102346.84;;;1.48;100.00
20455;BME280;10386;54.314;10.022;2023-02-15T04:32:00;102336.13;;;1.50;100.00
20455;BME280;10386;54.314;10.022;2023-02-15T04:34:28;102333.63;;;1.35;100.00
20455;BME280;10386;54.314;10.022;2023-02-15T04:36:54;102329.88;;;1.49;100.00
20455;BME280;10386;54.314;10.022;2023-02-15T04:39:21;102325.56;;;1.38;100.00
20455;BME280;10386;54.314;10.022;2023-02-15T04:41:48;102325.50;;;1.42;100.00
20455;BME280;10386;54.314;10.022;2023-02-15T04:44:15;102308.59;;;1.39;100.00
20455;BME280;10386;54.314;10.022;2023-02-15T04:46:42;102309.56;;;1.31;100.00
20455;BME280;10386;54.314;10.022;2023-02-15T04:49:08;102302.41;;;1.34;100.00
20455;BME280;10386;54.314;10.022;2023-02-15T04:51:36;102291.72;;;1.33;100.00
20455;BME280;10386;54.314;10.022;2023-02-15T04:54:03;102293.34;;;1.45;100.00
20455;BME280;10386;54.314;10.022;2023-02-15T04:56:29;102291.59;;;1.44;100.00
20455;BME280;10386;54.314;10.022;2023-02-15T04:58:57;102289.84;;;1.40;100.00
20455;BME280;10386;54.314;10.022;2023-02-15T05:01:24;102278.09;;;1.55;100.00
20455;BME280;10386;54.314;10.022;2023-02-15T05:03:51;102278.09;;;1.55;100.00
20455;BME280;10386;54.314;10.022;2023-02-15T05:06:17;102270.13;;;1.47;100.00
20455;BME280;10386;54.314;10.022;2023-02-15T05:08:44;102274.69;;;1.39;100.00
20455;BME280;10386;54.314;10.022;2023-02-15T05:11:11;102258.47;;;1.54;100.00
20455;BME280;10386;54.314;10.022;2023-02-15T05:13:37;102263.06;;;1.43;100.00
20455;BME280;10386;54.314;10.022;2023-02-15T05:16:04;102246.94;;;1.49;100.00
20455;BME280;10386;54.314;10.022;2023-02-15T05:18:32;102253.22;;;1.45;100.00
20455;BME280;10386;54.314;10.022;2023-02-15T05:20:59;102249.72;;;1.42;100.00
20455;BME280;10386;54.314;10.022;2023-02-15T05:23:25;102249.63;;;1.48;100.00
20455;BME280;10386;54.314;10.022;2023-02-15T05:25:52;102242.47;;;1.48;100.00
20455;BME280;10386;54.314;10.022;2023-02-15T05:28:37;102247.00;;;1.45;100.00
20455;BME280;10386;54.314;10.022;2023-02-15T05:31:11;102248.59;;;1.59;100.00
20455;BME280;10386;54.314;10.022;2023-02-15T05:33:38;102244.13;;;1.58;100.00
20455;BME280;10386;54.314;10.022;2023-02-15T05:36:06;102257.56;;;1.57;100.00
20455;BME280;10386;54.314;10.022;2023-02-15T05:38:33;102255.88;;;1.48;100.00
20455;BME280;10386;54.314;10.022;2023-02-15T05:40:59;102243.31;;;1.53;100.00
20455;BME280;10386;54.314;10.022;2023-02-15T05:43:26;102238.88;;;1.54;100.00
20455;BME280;10386;54.314;10.022;2023-02-15T05:45:54;102247.00;;;1.43;100.00
20455;BME280;10386;54.314;10.022;2023-02-15T05:48:23;102243.53;;;1.37;100.00
20455;BME280;10386;54.314;10.022;2023-02-15T05:51:02;102241.63;;;1.48;100.00
20455;BME280;10386;54.314;10.022;2023-02-15T05:53:30;102232.50;;;1.62;100.00
20455;BME280;10386;54.314;10.022;2023-02-15T05:55:58;102217.25;;;1.67;100.00
20455;BME280;10386;54.314;10.022;2023-02-15T05:58:28;102227.13;;;1.62;100.00
20455;BME280;10386;54.314;10.022;2023-02-15T06:00:56;102226.31;;;1.57;100.00
20455;BME280;10386;54.314;10.022;2023-02-15T06:03:23;102218.19;;;1.63;100.00
20455;BME280;10386;54.314;10.022;2023-02-15T06:05:52;102218.28;;;1.57;100.00
20455;BME280;10386;54.314;10.022;2023-02-15T06:08:19;102205.69;;;1.65;100.00
20455;BME280;10386;54.314;10.022;2023-02-15T06:10:46;102204.84;;;1.62;100.00
20455;BME280;10386;54.314;10.022;2023-02-15T06:13:13;102201.28;;;1.61;100.00
20455;BME280;10386;54.314;10.022;2023-02-15T06:15:39;102202.22;;;1.59;100.00
20455;BME280;10386;54.314;10.022;2023-02-15T06:18:06;102203.22;;;1.52;100.00
20455;BME280;10386;54.314;10.022;2023-02-15T06:20:33;102201.44;;;1.49;100.00
20455;BME280;10386;54.314;10.022;2023-02-15T06:23:00;102198.56;;;1.64;100.00
20455;BME280;10386;54.314;10.022;2023-02-15T06:25:26;102189.72;;;1.59;100.00
20455;BME280;10386;54.314;10.022;2023-02-15T06:27:53;102190.78;;;1.46;100.00
20455;BME280;10386;54.314;10.022;2023-02-15T06:30:21;102194.25;;;1.54;100.00
20455;BME280;10386;54.314;10.022;2023-02-15T06:32:48;102182.53;;;1.63;100.00
20455;BME280;10386;54.314;10.022;2023-02-15T06:35:14;102178.97;;;1.64;100.00
20455;BME280;10386;54.314;10.022;2023-02-15T06:37:41;102172.72;;;1.63;100.00
20455;BME280;10386;54.314;10.022;2023-02-15T06:40:08;102185.34;;;1.52;100.00
20455;BME280;10386;54.314;10.022;2023-02-15T06:42:35;102184.34;;;1.59;100.00
20455;BME280;10386;54.314;10.022;2023-02-15T06:45:02;102159.13;;;1.78;100.00
20455;BME280;10386;54.314;10.022;2023-02-15T06:47:30;102156.50;;;1.75;100.00
20455;BME280;10386;54.314;10.022;2023-02-15T06:49:57;102150.38;;;1.66;100.00
20455;BME280;10386;54.314;10.022;2023-02-15T06:52:24;102152.25;;;1.59;100.00
20455;BME280;10386;54.314;10.022;2023-02-15T06:54:50;102148.72;;;1.57;100.00
20455;BME280;10386;54.314;10.022;2023-02-15T06:57:17;102148.63;;;1.65;100.00
20455;BME280;10386;54.314;10.022;2023-02-15T06:59:44;102137.03;;;1.63;100.00
20455;BME280;10386;54.314;10.022;2023-02-15T07:02:14;102148.91;;;1.44;100.00
20455;BME280;10386;54.314;10.022;2023-02-15T07:04:41;102158.75;;;1.42;100.00
20455;BME280;10386;54.314;10.022;2023-02-15T07:07:09;102153.31;;;1.46;100.00
20455;BME280;10386;54.314;10.022;2023-02-15T07:09:37;102147.97;;;1.48;100.00
20455;BME280;10386;54.314;10.022;2023-02-15T07:12:04;102139.81;;;1.55;100.00
20455;BME280;10386;54.314;10.022;2023-02-15T07:14:50;102128.97;;;1.64;100.00
20455;BME280;10386;54.314;10.022;2023-02-15T07:17:17;102137.19;;;1.54;100.00
20455;BME280;10386;54.314;10.022;2023-02-15T07:20:05;102129.97;;;1.57;100.00
20455;BME280;10386;54.314;10.022;2023-02-15T07:22:32;102141.75;;;1.44;100.00
20455;BME280;10386;54.314;10.022;2023-02-15T07:25:00;102121.84;;;1.65;100.00
20455;BME280;10386;54.314;10.022;2023-02-15T07:27:27;102114.78;;;1.59;100.00
20455;BME280;10386;54.314;10.022;2023-02-15T07:29:54;102119.06;;;1.72;100.00
20455;BME280;10386;54.314;10.022;2023-02-15T07:32:20;102122.91;;;1.55;100.00
20455;BME280;10386;54.314;10.022;2023-02-15T07:34:47;102117.38;;;1.65;100.00
20455;BME280;10386;54.314;10.022;2023-02-15T07:37:14;102103.94;;;1.70;100.00
20455;BME280;10386;54.314;10.022;2023-02-15T07:39:41;102104.69;;;1.78;100.00
20455;BME280;10386;54.314;10.022;2023-02-15T07:42:08;102113.69;;;1.75;100.00
20455;BME280;10386;54.314;10.022;2023-02-15T07:44:34;102100.16;;;1.83;100.00
20455;BME280;10386;54.314;10.022;2023-02-15T07:47:01;102090.19;;;1.91;100.00
20455;BME280;10386;54.314;10.022;2023-02-15T07:49:28;102087.53;;;1.91;100.00
20455;BME280;10386;54.314;10.022;2023-02-15T07:51:55;102081.31;;;1.90;100.00
20455;BME280;10386;54.314;10.022;2023-02-15T07:54:21;102075.00;;;1.94;100.00
20455;BME280;10386;54.314;10.022;2023-02-15T07:56:48;102071.31;;;2.00;100.00
20455;BME280;10386;54.314;10.022;2023-02-15T07:59:15;102073.00;;;2.05;100.00
20455;BME280;10386;54.314;10.022;2023-02-15T08:01:41;102072.31;;;1.93;100.00
20455;BME280;10386;54.314;10.022;2023-02-15T08:04:08;102059.69;;;2.01;100.00
20455;BME280;10386;54.314;10.022;2023-02-15T08:06:37;102058.06;;;1.91;100.00
20455;BME280;10386;54.314;10.022;2023-02-15T08:09:08;102070.69;;;1.84;100.00
20455;BME280;10386;54.314;10.022;2023-02-15T08:11:37;102059.56;;;2.08;100.00
20455;BME280;10386;54.314;10.022;2023-02-15T08:19:23;102061.59;;;1.93;100.00
20455;BME280;10386;54.314;10.022;2023-02-15T08:22:11;102066.81;;;2.03;100.00
20455;BME280;10386;54.314;10.022;2023-02-15T08:24:38;102064.00;;;2.09;100.00
20455;BME280;10386;54.314;10.022;2023-02-15T08:27:06;102063.09;;;2.10;100.00
20455;BME280;10386;54.314;10.022;2023-02-15T08:29:35;102059.41;;;2.17;100.00
20455;BME280;10386;54.314;10.022;2023-02-15T08:32:08;102046.75;;;2.25;100.00
20455;BME280;10386;54.314;10.022;2023-02-15T08:34:38;102042.13;;;2.35;100.00
20455;BME280;10386;54.314;10.022;2023-02-15T08:37:05;102046.63;;;2.33;100.00
20455;BME280;10386;54.314;10.022;2023-02-15T08:39:33;102040.13;;;2.46;100.00
20455;BME280;10386;54.314;10.022;2023-02-15T08:41:59;102030.22;;;2.49;100.00
20455;BME280;10386;54.314;10.022;2023-02-15T08:44:26;102023.94;;;2.50;100.00
20455;BME280;10386;54.314;10.022;2023-02-15T08:46:53;102023.88;;;2.53;100.00
20455;BME280;10386;54.314;10.022;2023-02-15T08:49:21;102023.13;;;2.47;100.00
20455;BME280;10386;54.314;10.022;2023-02-15T08:51:48;102019.34;;;2.58;100.00
20455;BME280;10386;54.314;10.022;2023-02-15T08:54:18;102012.09;;;2.63;100.00
20455;BME280;10386;54.314;10.022;2023-02-15T08:56:45;102001.03;;;2.78;100.00
20455;BME280;10386;54.314;10.022;2023-02-15T08:59:18;101991.13;;;2.81;100.00
20455;BME280;10386;54.314;10.022;2023-02-15T09:01:46;101986.41;;;2.92;100.00
20455;BME280;10386;54.314;10.022;2023-02-15T09:04:13;101981.81;;;2.99;100.00
20455;BME280;10386;54.314;10.022;2023-02-15T09:06:43;101975.31;;;3.09;100.00
20455;BME280;10386;54.314;10.022;2023-02-15T09:09:13;101973.75;;;3.00;100.00
20455;BME280;10386;54.314;10.022;2023-02-15T09:11:42;101969.03;;;3.10;100.00
20455;BME280;10386;54.314;10.022;2023-02-15T09:14:11;101962.44;;;3.24;100.00
20455;BME280;10386;54.314;10.022;2023-02-15T09:16:41;101968.03;;;3.15;100.00
20455;BME280;10386;54.314;10.022;2023-02-15T09:19:08;101963.78;;;3.05;100.00
20455;BME280;10386;54.314;10.022;2023-02-15T09:21:36;101965.56;;;3.06;100.00
20455;BME280;10386;54.314;10.022;2023-02-15T09:24:06;101962.25;;;2.94;100.00
20455;BME280;10386;54.314;10.022;2023-02-15T09:26:35;101974.69;;;2.98;100.00
20455;BME280;10386;54.314;10.022;2023-02-15T09:29:03;101980.94;;;2.97;100.00
20455;BME280;10386;54.314;10.022;2023-02-15T09:31:52;101971.56;;;3.17;100.00
20455;BME280;10386;54.314;10.022;2023-02-15T09:34:21;101972.94;;;3.33;100.00
20455;BME280;10386;54.314;10.022;2023-02-15T09:36:49;101974.59;;;3.39;100.00
20455;BME280;10386;54.314;10.022;2023-02-15T09:39:26;101968.13;;;3.47;100.00
20455;BME280;10386;54.314;10.022;2023-02-15T09:53:44;101951.47;;;3.68;100.00
20455;BME280;10386;54.314;10.022;2023-02-15T09:56:39;101951.31;;;3.76;100.00
20455;BME280;10386;54.314;10.022;2023-02-15T09:59:16;101945.03;;;3.75;100.00
20455;BME280;10386;54.314;10.022;2023-02-15T10:05:04;101950.19;;;3.84;100.00
20455;BME280;10386;54.314;10.022;2023-02-15T10:08:06;101936.47;;;3.95;100.00
20455;BME280;10386;54.314;10.022;2023-02-15T10:10:54;101942.34;;;4.08;100.00
20455;BME280;10386;54.314;10.022;2023-02-15T10:13:46;101934.28;;;4.08;100.00
20455;BME280;10386;54.314;10.022;2023-02-15T10:16:38;101935.00;;;4.15;100.00
20455;BME280;10386;54.314;10.022;2023-02-15T10:26:56;101918.19;;;4.39;100.00
20455;BME280;10386;54.314;10.022;2023-02-15T10:34:40;101907.44;;;4.39;100.00
20455;BME280;10386;54.314;10.022;2023-02-15T10:37:35;101912.06;;;4.34;100.00
20455;BME280;10386;54.314;10.022;2023-02-15T10:43:23;101902.59;;;4.80;100.00
20455;BME280;10386;54.314;10.022;2023-02-15T10:57:16;101892.34;;;4.93;100.00
20455;BME280;10386;54.314;10.022;2023-02-15T11:02:49;101879.44;;;5.02;100.00
20455;BME280;10386;54.314;10.022;2023-02-15T11:08:24;101870.94;;;5.16;100.00
20455;BME280;10386;54.314;10.022;2023-02-15T11:10:55;101861.94;;;5.17;100.00
20455;BME280;10386;54.314;10.022;2023-02-15T11:13:26;101858.91;;;5.27;100.00
20455;BME280;10386;54.314;10.022;2023-02-15T11:15:59;101858.81;;;5.30;100.00
20455;BME280;10386;54.314;10.022;2023-02-15T11:18:38;101845.75;;;5.44;100.00
20455;BME280;10386;54.314;10.022;2023-02-15T11:21:14;101856.53;;;5.18;100.00
20455;BME280;10386;54.314;10.022;2023-02-15T11:23:44;101849.00;;;5.28;100.00
20455;BME280;10386;54.314;10.022;2023-02-15T11:26:22;101837.59;;;5.45;100.00
20455;BME280;10386;54.314;10.022;2023-02-15T11:28:55;101835.59;;;5.52;100.00
20455;BME280;10386;54.314;10.022;2023-02-15T11:31:26;101833.88;;;5.49;100.00
20455;BME280;10386;54.314;10.022;2023-02-15T11:34:03;101831.59;;;5.38;100.00
20455;BME280;10386;54.314;10.022;2023-02-15T11:36:36;101825.47;;;5.34;100.00
20455;BME280;10386;54.314;10.022;2023-02-15T11:39:10;101823.94;;;5.26;100.00
20455;BME280;10386;54.314;10.022;2023-02-15T11:41:41;101805.03;;;5.53;100.00
20455;BME280;10386;54.314;10.022;2023-02-15T11:46:38;101811.88;;;5.37;100.00
20455;BME280;10386;54.314;10.022;2023-02-15T11:49:21;101808.78;;;5.23;100.00
20455;BME280;10386;54.314;10.022;2023-02-15T11:51:49;101802.16;;;5.33;100.00
20455;BME280;10386;54.314;10.022;2023-02-15T11:54:23;101796.50;;;5.65;100.00
20455;BME280;10386;54.314;10.022;2023-02-15T11:56:52;101790.88;;;5.46;100.00
20455;BME280;10386;54.314;10.022;2023-02-15T11:59:27;101775.97;;;5.62;100.00
20455;BME280;10386;54.314;10.022;2023-02-15T12:01:56;101769.53;;;5.91;100.00
20455;BME280;10386;54.314;10.022;2023-02-15T12:04:30;101775.69;;;5.70;100.00
20455;BME280;10386;54.314;10.022;2023-02-15T12:07:03;101769.91;;;5.56;100.00
20455;BME280;10386;54.314;10.022;2023-02-15T12:09:53;101760.56;;;5.66;100.00
20455;BME280;10386;54.314;10.022;2023-02-15T12:12:28;101752.66;;;5.86;100.00
20455;BME280;10386;54.314;10.022;2023-02-15T12:15:00;101755.50;;;6.06;100.00
20455;BME280;10386;54.314;10.022;2023-02-15T12:17:38;101748.59;;;5.99;100.00
20455;BME280;10386;54.314;10.022;2023-02-15T12:25:21;101742.16;;;6.03;100.00
20455;BME280;10386;54.314;10.022;2023-02-15T12:27:49;101739.50;;;6.01;100.00
20455;BME280;10386;54.314;10.022;2023-02-15T12:30:45;101739.59;;;5.98;100.00
20455;BME280;10386;54.314;10.022;2023-02-15T12:33:32;101740.63;;;5.96;100.00
20455;BME280;10386;54.314;10.022;2023-02-15T12:36:12;101743.34;;;5.94;100.00
20455;BME280;10386;54.314;10.022;2023-02-15T12:38:41;101734.41;;;6.17;100.00
20455;BME280;10386;54.314;10.022;2023-02-15T12:41:22;101734.22;;;5.98;100.00
20455;BME280;10386;54.314;10.022;2023-02-15T12:46:32;101709.44;;;6.12;100.00
20455;BME280;10386;54.314;10.022;2023-02-15T12:54:42;101703.03;;;6.14;100.00
20455;BME280;10386;54.314;10.022;2023-02-15T13:02:43;101707.44;;;6.17;100.00
20455;BME280;10386;54.314;10.022;2023-02-15T13:08:19;101699.59;;;6.32;100.00
20455;BME280;10386;54.314;10.022;2023-02-15T13:10:54;101718.22;;;6.17;100.00
20455;BME280;10386;54.314;10.022;2023-02-15T13:13:24;101717.88;;;6.03;100.00
20455;BME280;10386;54.314;10.022;2023-02-15T13:15:55;101710.00;;;6.20;100.00
20455;BME280;10386;54.314;10.022;2023-02-15T13:18:37;101712.41;;;6.04;100.00
20455;BME280;10386;54.314;10.022;2023-02-15T13:21:41;101702.38;;;6.31;100.00
20455;BME280;10386;54.314;10.022;2023-02-15T13:26:46;101710.72;;;6.25;100.00
20455;BME280;10386;54.314;10.022;2023-02-15T13:29:26;101710.38;;;6.11;100.00
20455;BME280;10386;54.314;10.022;2023-02-15T13:31:55;101712.19;;;6.10;100.00
20455;BME280;10386;54.314;10.022;2023-02-15T13:34:28;101709.00;;;6.22;100.00
20455;BME280;10386;54.314;10.022;2023-02-15T13:40:58;101714.72;;;6.15;100.00
20455;BME280;10386;54.314;10.022;2023-02-15T13:43:35;101709.31;;;6.15;100.00
20455;BME280;10386;54.314;10.022;2023-02-15T13:49:20;101701.09;;;6.18;100.00
20455;BME280;10386;54.314;10.022;2023-02-15T13:54:35;101700.09;;;6.20;100.00
20455;BME280;10386;54.314;10.022;2023-02-15T14:05:46;101680.94;;;6.49;100.00
20455;BME280;10386;54.314;10.022;2023-02-15T14:08:27;101674.47;;;6.53;100.00
20455;BME280;10386;54.314;10.022;2023-02-15T14:11:08;101672.00;;;6.69;100.00
20455;BME280;10386;54.314;10.022;2023-02-15T14:19:46;101688.13;;;6.27;100.00
20455;BME280;10386;54.314;10.022;2023-02-15T14:25:05;101673.66;;;6.51;100.00
20455;BME280;10386;54.314;10.022;2023-02-15T14:30:31;101697.03;;;6.29;100.00
20455;BME280;10386;54.314;10.022;2023-02-15T14:35:42;101690.91;;;6.26;100.00
20455;BME280;10386;54.314;10.022;2023-02-15T14:40:46;101691.22;;;5.95;100.00
20455;BME280;10386;54.314;10.022;2023-02-15T14:43:33;101682.47;;;6.12;100.00
20455;BME280;10386;54.314;10.022;2023-02-15T14:48:49;101681.47;;;6.14;100.00
20455;BME280;10386;54.314;10.022;2023-02-15T14:56:46;101674.16;;;6.18;100.00
20455;BME280;10386;54.314;10.022;2023-02-15T14:59:23;101678.88;;;6.11;100.00
20455;BME280;10386;54.314;10.022;2023-02-15T15:05:02;101677.47;;;6.24;100.00
20455;BME280;10386;54.314;10.022;2023-02-15T15:07:44;101680.16;;;6.03;100.00
20455;BME280;10386;54.314;10.022;2023-02-15T15:12:55;101692.19;;;5.93;100.00
20455;BME280;10386;54.314;10.022;2023-02-15T15:18:06;101683.72;;;6.03;100.00
20455;BME280;10386;54.314;10.022;2023-02-15T15:25:51;101690.38;;;5.70;100.00
20455;BME280;10386;54.314;10.022;2023-02-15T15:31:20;101694.38;;;5.83;100.00
20455;BME280;10386;54.314;10.022;2023-02-15T15:50:54;101662.78;;;5.87;100.00
20455;BME280;10386;54.314;10.022;2023-02-15T15:53:25;101660.63;;;5.96;100.00
20455;BME280;10386;54.314;10.022;2023-02-15T15:55:59;101653.31;;;6.00;100.00
20455;BME280;10386;54.314;10.022;2023-02-15T15:58:27;101642.88;;;5.91;100.00
20455;BME280;10386;54.314;10.022;2023-02-15T16:01:03;101643.81;;;5.90;100.00
20455;BME280;10386;54.314;10.022;2023-02-15T16:03:33;101642.66;;;5.97;100.00
20455;BME280;10386;54.314;10.022;2023-02-15T16:06:00;101649.19;;;5.90;100.00
20455;BME280;10386;54.314;10.022;2023-02-15T16:08:32;101644.13;;;5.82;100.00